sensor_id;sensor_type;location;lat;lon;timestamp;P1;durP1;ratioP1;P2;durP2;ratioP2
26271;SDS011;13997;48.902;12.472;2023-07-29T00:01:30;3.05;;;2.10;;
26271;SDS011;13997;48.902;12.472;2023-07-29T00:03:56;6.78;;;2.38;;
26271;SDS011;13997;48.902;12.472;2023-07-29T00:06:21;6.40;;;2.63;;
26271;SDS011;13997;48.902;12.472;2023-07-29T00:08:47;3.72;;;2.17;;
26271;SDS011;13997;48.902;12.472;2023-07-29T00:11:13;3.25;;;2.15;;
26271;SDS011;13997;48.902;12.472;2023-07-29T00:13:39;4.38;;;2.20;;
26271;SDS011;13997;48.902;12.472;2023-07-29T00:16:04;3.22;;;2.17;;
26271;SDS011;13997;48.902;12.472;2023-07-29T00:18:31;7.97;;;2.50;;
26271;SDS011;13997;48.902;12.472;2023-07-29T00:20:57;3.67;;;2.10;;
26271;SDS011;13997;48.902;12.472;2023-07-29T00:23:22;4.38;;;2.15;;
26271;SDS011;13997;48.902;12.472;2023-07-29T00:25:48;3.72;;;2.33;;
26271;SDS011;13997;48.902;12.472;2023-07-29T00:28:14;3.47;;;2.00;;
26271;SDS011;13997;48.902;12.472;2023-07-29T00:30:39;4.28;;;2.25;;
26271;SDS011;13997;48.902;12.472;2023-07-29T00:33:05;3.72;;;2.22;;
26271;SDS011;13997;48.902;12.472;2023-07-29T00:35:31;7.13;;;2.70;;
26271;SDS011;13997;48.902;12.472;2023-07-29T00:37:56;6.30;;;2.67;;
26271;SDS011;13997;48.902;12.472;2023-07-29T00:40:22;4.18;;;2.40;;
26271;SDS011;13997;48.902;12.472;2023-07-29T00:42:48;8.10;;;2.67;;
26271;SDS011;13997;48.902;12.472;2023-07-29T00:45:15;3.53;;;2.45;;
26271;SDS011;13997;48.902;12.472;2023-07-29T00:47:41;7.57;;;2.90;;
26271;SDS011;13997;48.902;12.472;2023-07-29T00:50:08;8.00;;;3.13;;
26271;SDS011;13997;48.902;12.472;2023-07-29T00:52:36;5.13;;;3.10;;
26271;SDS011;13997;48.902;12.472;2023-07-29T00:55:01;4.90;;;3.30;;
26271;SDS011;13997;48.902;12.472;2023-07-29T00:57:27;11.18;;;3.42;;
26271;SDS011;13997;48.902;12.472;2023-07-29T00:59:55;4.68;;;3.45;;
26271;SDS011;13997;48.902;12.472;2023-07-29T01:02:21;5.82;;;3.60;;
26271;SDS011;13997;48.902;12.472;2023-07-29T01:04:56;5.53;;;3.42;;
26271;SDS011;13997;48.902;12.472;2023-07-29T01:15:17;5.68;;;3.65;;
26271;SDS011;13997;48.902;12.472;2023-07-29T01:18:02;5.40;;;3.47;;
26271;SDS011;13997;48.902;12.472;2023-07-29T01:20:49;6.32;;;3.20;;
26271;SDS011;13997;48.902;12.472;2023-07-29T01:23:31;11.40;;;3.85;;
26271;SDS011;13997;48.902;12.472;2023-07-29T01:25:58;8.00;;;4.40;;
26271;SDS011;13997;48.902;12.472;2023-07-29T01:28:24;7.40;;;4.15;;
26271;SDS011;13997;48.902;12.472;2023-07-29T01:30:51;7.35;;;4.30;;
26271;SDS011;13997;48.902;12.472;2023-07-29T01:33:57;6.25;;;3.70;;
26271;SDS011;13997;48.902;12.472;2023-07-29T01:36:41;7.90;;;4.20;;
26271;SDS011;13997;48.902;12.472;2023-07-29T01:39:08;4.60;;;3.92;;
26271;SDS011;13997;48.902;12.472;2023-07-29T01:41:36;5.32;;;4.00;;
26271;SDS011;13997;48.902;12.472;2023-07-29T01:44:02;4.60;;;3.70;;
26271;SDS011;13997;48.902;12.472;2023-07-29T01:46:28;6.40;;;4.38;;
26271;SDS011;13997;48.902;12.472;2023-07-29T01:48:53;6.93;;;4.22;;
26271;SDS011;13997;48.902;12.472;2023-07-29T01:51:19;7.03;;;4.03;;
26271;SDS011;13997;48.902;12.472;2023-07-29T01:53:46;7.90;;;3.90;;
26271;SDS011;13997;48.902;12.472;2023-07-29T01:56:11;7.03;;;4.00;;
26271;SDS011;13997;48.902;12.472;2023-07-29T01:58:37;5.03;;;3.80;;
26271;SDS011;13997;48.902;12.472;2023-07-29T02:01:02;5.00;;;3.50;;
26271;SDS011;13997;48.902;12.472;2023-07-29T02:03:28;6.55;;;3.97;;
26271;SDS011;13997;48.902;12.472;2023-07-29T02:05:54;6.70;;;3.83;;
26271;SDS011;13997;48.902;12.472;2023-07-29T02:08:19;6.25;;;3.60;;
26271;SDS011;13997;48.902;12.472;2023-07-29T02:10:45;6.20;;;3.65;;
26271;SDS011;13997;48.902;12.472;2023-07-29T02:13:11;5.13;;;3.58;;
26271;SDS011;13997;48.902;12.472;2023-07-29T02:15:36;4.68;;;3.53;;
26271;SDS011;13997;48.902;12.472;2023-07-29T02:18:02;6.63;;;3.78;;
26271;SDS011;13997;48.902;12.472;2023-07-29T02:20:28;6.82;;;3.75;;
26271;SDS011;13997;48.902;12.472;2023-07-29T02:22:54;8.23;;;3.50;;
26271;SDS011;13997;48.902;12.472;2023-07-29T02:25:19;5.25;;;3.28;;
26271;SDS011;13997;48.902;12.472;2023-07-29T02:27:45;4.18;;;3.17;;
26271;SDS011;13997;48.902;12.472;2023-07-29T02:30:11;7.10;;;3.47;;
26271;SDS011;13997;48.902;12.472;2023-07-29T02:32:37;5.07;;;3.10;;
26271;SDS011;13997;48.902;12.472;2023-07-29T02:35:03;6.90;;;3.70;;
26271;SDS011;13997;48.902;12.472;2023-07-29T02:37:29;4.35;;;3.28;;
26271;SDS011;13997;48.902;12.472;2023-07-29T02:39:55;4.82;;;3.83;;
26271;SDS011;13997;48.902;12.472;2023-07-29T02:42:21;6.80;;;4.22;;
26271;SDS011;13997;48.902;12.472;2023-07-29T02:44:46;6.03;;;3.63;;
26271;SDS011;13997;48.902;12.472;2023-07-29T02:47:12;4.20;;;3.17;;
26271;SDS011;13997;48.902;12.472;2023-07-29T02:49:37;4.97;;;3.33;;
26271;SDS011;13997;48.902;12.472;2023-07-29T02:52:03;5.15;;;3.35;;
26271;SDS011;13997;48.902;12.472;2023-07-29T02:54:29;6.50;;;3.08;;
26271;SDS011;13997;48.902;12.472;2023-07-29T02:56:54;5.13;;;3.45;;
26271;SDS011;13997;48.902;12.472;2023-07-29T02:59:20;5.57;;;3.13;;
26271;SDS011;13997;48.902;12.472;2023-07-29T03:01:46;4.85;;;2.85;;
26271;SDS011;13997;48.902;12.472;2023-07-29T03:04:11;4.38;;;3.08;;
26271;SDS011;13997;48.902;12.472;2023-07-29T03:06:38;4.00;;;2.78;;
26271;SDS011;13997;48.902;12.472;2023-07-29T03:09:04;5.00;;;3.50;;
26271;SDS011;13997;48.902;12.472;2023-07-29T03:11:29;6.13;;;3.28;;
26271;SDS011;13997;48.902;12.472;2023-07-29T03:13:56;6.95;;;3.35;;
26271;SDS011;13997;48.902;12.472;2023-07-29T03:16:22;5.97;;;3.80;;
26271;SDS011;13997;48.902;12.472;2023-07-29T03:18:48;5.00;;;3.47;;
26271;SDS011;13997;48.902;12.472;2023-07-29T03:21:14;5.35;;;3.38;;
26271;SDS011;13997;48.902;12.472;2023-07-29T03:23:40;17.90;;;4.05;;
26271;SDS011;13997;48.902;12.472;2023-07-29T03:26:06;5.68;;;3.63;;
26271;SDS011;13997;48.902;12.472;2023-07-29T03:28:35;5.38;;;4.05;;
26271;SDS011;13997;48.902;12.472;2023-07-29T03:31:02;6.40;;;4.25;;
26271;SDS011;13997;48.902;12.472;2023-07-29T03:33:28;5.13;;;3.65;;
26271;SDS011;13997;48.902;12.472;2023-07-29T03:35:54;5.50;;;3.70;;
26271;SDS011;13997;48.902;12.472;2023-07-29T03:38:20;5.38;;;3.80;;
26271;SDS011;13997;48.902;12.472;2023-07-29T03:40:46;5.80;;;4.05;;
26271;SDS011;13997;48.902;12.472;2023-07-29T03:43:11;6.85;;;3.78;;
26271;SDS011;13997;48.902;12.472;2023-07-29T03:45:37;8.88;;;3.58;;
26271;SDS011;13997;48.902;12.472;2023-07-29T03:48:04;7.85;;;3.85;;
26271;SDS011;13997;48.902;12.472;2023-07-29T03:50:30;7.88;;;3.55;;
26271;SDS011;13997;48.902;12.472;2023-07-29T03:52:55;5.47;;;3.75;;
26271;SDS011;13997;48.902;12.472;2023-07-29T03:55:21;4.78;;;3.15;;
26271;SDS011;13997;48.902;12.472;2023-07-29T03:57:47;5.75;;;3.30;;
26271;SDS011;13997;48.902;12.472;2023-07-29T04:00:13;5.50;;;3.40;;
26271;SDS011;13997;48.902;12.472;2023-07-29T04:02:39;4.60;;;3.33;;
26271;SDS011;13997;48.902;12.472;2023-07-29T04:05:05;6.47;;;3.42;;
26271;SDS011;13997;48.902;12.472;2023-07-29T04:07:33;5.20;;;3.60;;
26271;SDS011;13997;48.902;12.472;2023-07-29T04:09:59;5.50;;;3.30;;
26271;SDS011;13997;48.902;12.472;2023-07-29T04:12:25;4.43;;;3.20;;
26271;SDS011;13997;48.902;12.472;2023-07-29T04:14:51;6.32;;;3.38;;
26271;SDS011;13997;48.902;12.472;2023-07-29T04:17:17;5.28;;;3.80;;
26271;SDS011;13997;48.902;12.472;2023-07-29T04:19:43;6.15;;;3.70;;
26271;SDS011;13997;48.902;12.472;2023-07-29T04:22:08;7.90;;;3.78;;
26271;SDS011;13997;48.902;12.472;2023-07-29T04:24:34;6.18;;;3.40;;
26271;SDS011;13997;48.902;12.472;2023-07-29T04:26:59;6.85;;;3.17;;
26271;SDS011;13997;48.902;12.472;2023-07-29T04:29:25;5.72;;;3.35;;
26271;SDS011;13997;48.902;12.472;2023-07-29T04:31:50;3.85;;;3.20;;
26271;SDS011;13997;48.902;12.472;2023-07-29T04:34:17;5.53;;;3.17;;
26271;SDS011;13997;48.902;12.472;2023-07-29T04:36:44;5.40;;;3.28;;
26271;SDS011;13997;48.902;12.472;2023-07-29T04:39:12;4.25;;;3.05;;
26271;SDS011;13997;48.902;12.472;2023-07-29T04:41:38;4.60;;;3.20;;
26271;SDS011;13997;48.902;12.472;2023-07-29T04:44:04;6.03;;;3.35;;
26271;SDS011;13997;48.902;12.472;2023-07-29T04:46:30;7.00;;;3.60;;
26271;SDS011;13997;48.902;12.472;2023-07-29T04:48:55;8.98;;;4.30;;
26271;SDS011;13997;48.902;12.472;2023-07-29T04:51:21;6.25;;;3.90;;
26271;SDS011;13997;48.902;12.472;2023-07-29T04:53:47;6.70;;;3.70;;
26271;SDS011;13997;48.902;12.472;2023-07-29T04:56:13;6.65;;;3.70;;
26271;SDS011;13997;48.902;12.472;2023-07-29T04:58:38;9.40;;;3.78;;
26271;SDS011;13997;48.902;12.472;2023-07-29T05:01:04;5.63;;;4.35;;
26271;SDS011;13997;48.902;12.472;2023-07-29T05:03:30;5.38;;;3.80;;
26271;SDS011;13997;48.902;12.472;2023-07-29T05:05:55;4.88;;;3.67;;
26271;SDS011;13997;48.902;12.472;2023-07-29T05:08:22;7.25;;;3.97;;
26271;SDS011;13997;48.902;12.472;2023-07-29T05:10:50;8.48;;;3.60;;
26271;SDS011;13997;48.902;12.472;2023-07-29T05:13:17;7.63;;;3.72;;
26271;SDS011;13997;48.902;12.472;2023-07-29T05:15:43;5.03;;;3.53;;
26271;SDS011;13997;48.902;12.472;2023-07-29T05:18:09;6.72;;;3.70;;
26271;SDS011;13997;48.902;12.472;2023-07-29T05:20:34;9.65;;;4.03;;
26271;SDS011;13997;48.902;12.472;2023-07-29T05:23:00;12.93;;;3.65;;
26271;SDS011;13997;48.902;12.472;2023-07-29T05:25:26;7.50;;;4.13;;
26271;SDS011;13997;48.902;12.472;2023-07-29T05:27:52;6.45;;;3.92;;
26271;SDS011;13997;48.902;12.472;2023-07-29T05:30:17;6.88;;;3.60;;
26271;SDS011;13997;48.902;12.472;2023-07-29T05:32:43;6.70;;;3.88;;
26271;SDS011;13997;48.902;12.472;2023-07-29T05:35:09;7.40;;;3.78;;
26271;SDS011;13997;48.902;12.472;2023-07-29T05:37:35;6.68;;;4.32;;
26271;SDS011;13997;48.902;12.472;2023-07-29T05:40:03;4.85;;;3.80;;
26271;SDS011;13997;48.902;12.472;2023-07-29T05:42:29;8.32;;;3.80;;
26271;SDS011;13997;48.902;12.472;2023-07-29T05:44:54;7.05;;;3.80;;
26271;SDS011;13997;48.902;12.472;2023-07-29T05:47:20;5.80;;;3.72;;
26271;SDS011;13997;48.902;12.472;2023-07-29T05:49:45;4.70;;;3.20;;
26271;SDS011;13997;48.902;12.472;2023-07-29T05:52:11;6.13;;;3.95;;
26271;SDS011;13997;48.902;12.472;2023-07-29T05:54:37;6.60;;;3.10;;
26271;SDS011;13997;48.902;12.472;2023-07-29T05:57:02;6.15;;;3.70;;
26271;SDS011;13997;48.902;12.472;2023-07-29T05:59:29;7.97;;;3.70;;
26271;SDS011;13997;48.902;12.472;2023-07-29T06:01:55;4.93;;;3.53;;
26271;SDS011;13997;48.902;12.472;2023-07-29T06:04:21;7.07;;;3.70;;
26271;SDS011;13997;48.902;12.472;2023-07-29T06:06:46;4.55;;;3.25;;
26271;SDS011;13997;48.902;12.472;2023-07-29T06:09:12;5.50;;;3.50;;
26271;SDS011;13997;48.902;12.472;2023-07-29T06:11:37;4.45;;;3.25;;
26271;SDS011;13997;48.902;12.472;2023-07-29T06:14:03;5.78;;;3.83;;
26271;SDS011;13997;48.902;12.472;2023-07-29T06:16:28;8.85;;;3.90;;
26271;SDS011;13997;48.902;12.472;2023-07-29T06:18:54;5.22;;;3.25;;
26271;SDS011;13997;48.902;12.472;2023-07-29T06:21:19;6.22;;;3.58;;
26271;SDS011;13997;48.902;12.472;2023-07-29T06:23:45;7.18;;;3.42;;
26271;SDS011;13997;48.902;12.472;2023-07-29T06:26:11;5.45;;;3.60;;
26271;SDS011;13997;48.902;12.472;2023-07-29T06:28:37;7.40;;;3.08;;
26271;SDS011;13997;48.902;12.472;2023-07-29T06:31:02;6.68;;;3.58;;
26271;SDS011;13997;48.902;12.472;2023-07-29T06:33:28;5.45;;;3.13;;
26271;SDS011;13997;48.902;12.472;2023-07-29T06:35:53;5.18;;;3.00;;
26271;SDS011;13997;48.902;12.472;2023-07-29T06:38:19;4.20;;;3.33;;
26271;SDS011;13997;48.902;12.472;2023-07-29T06:40:47;4.60;;;3.00;;
26271;SDS011;13997;48.902;12.472;2023-07-29T06:43:13;6.00;;;3.15;;
26271;SDS011;13997;48.902;12.472;2023-07-29T06:45:38;5.22;;;3.30;;
26271;SDS011;13997;48.902;12.472;2023-07-29T06:48:04;6.43;;;3.10;;
26271;SDS011;13997;48.902;12.472;2023-07-29T06:50:29;9.10;;;4.22;;
26271;SDS011;13997;48.902;12.472;2023-07-29T06:52:55;4.47;;;3.10;;
26271;SDS011;13997;48.902;12.472;2023-07-29T06:55:21;9.75;;;3.10;;
26271;SDS011;13997;48.902;12.472;2023-07-29T06:57:46;10.75;;;3.45;;
26271;SDS011;13997;48.902;12.472;2023-07-29T07:00:12;5.38;;;2.88;;
26271;SDS011;13997;48.902;12.472;2023-07-29T07:02:37;5.95;;;3.60;;
26271;SDS011;13997;48.902;12.472;2023-07-29T07:05:03;5.30;;;3.22;;
26271;SDS011;13997;48.902;12.472;2023-07-29T07:07:29;8.85;;;3.40;;
26271;SDS011;13997;48.902;12.472;2023-07-29T07:09:55;4.78;;;3.60;;
26271;SDS011;13997;48.902;12.472;2023-07-29T07:12:20;5.78;;;3.42;;
26271;SDS011;13997;48.902;12.472;2023-07-29T07:14:46;5.20;;;3.58;;
26271;SDS011;13997;48.902;12.472;2023-07-29T07:17:12;8.02;;;4.03;;
26271;SDS011;13997;48.902;12.472;2023-07-29T07:19:38;6.13;;;3.35;;
26271;SDS011;13997;48.902;12.472;2023-07-29T07:22:03;7.82;;;3.60;;
26271;SDS011;13997;48.902;12.472;2023-07-29T07:24:29;4.50;;;3.47;;
26271;SDS011;13997;48.902;12.472;2023-07-29T07:26:55;6.57;;;3.50;;
26271;SDS011;13997;48.902;12.472;2023-07-29T07:29:20;4.25;;;3.42;;
26271;SDS011;13997;48.902;12.472;2023-07-29T07:31:49;7.35;;;3.40;;
26271;SDS011;13997;48.902;12.472;2023-07-29T07:34:17;4.63;;;3.00;;
26271;SDS011;13997;48.902;12.472;2023-07-29T07:36:43;7.75;;;3.30;;
26271;SDS011;13997;48.902;12.472;2023-07-29T07:39:09;6.15;;;2.90;;
26271;SDS011;13997;48.902;12.472;2023-07-29T07:41:34;6.50;;;2.92;;
26271;SDS011;13997;48.902;12.472;2023-07-29T07:44:00;3.67;;;2.60;;
26271;SDS011;13997;48.902;12.472;2023-07-29T07:46:25;4.55;;;2.67;;
26271;SDS011;13997;48.902;12.472;2023-07-29T07:48:51;5.43;;;2.60;;
26271;SDS011;13997;48.902;12.472;2023-07-29T07:51:16;7.60;;;3.05;;
26271;SDS011;13997;48.902;12.472;2023-07-29T07:53:42;5.55;;;2.88;;
26271;SDS011;13997;48.902;12.472;2023-07-29T07:56:07;3.90;;;2.80;;
26271;SDS011;13997;48.902;12.472;2023-07-29T07:58:33;4.38;;;3.05;;
26271;SDS011;13997;48.902;12.472;2023-07-29T08:01:03;6.05;;;3.00;;
26271;SDS011;13997;48.902;12.472;2023-07-29T08:03:29;6.72;;;2.95;;
26271;SDS011;13997;48.902;12.472;2023-07-29T08:05:55;7.22;;;3.35;;
26271;SDS011;13997;48.902;12.472;2023-07-29T08:08:21;5.00;;;2.85;;
26271;SDS011;13997;48.902;12.472;2023-07-29T08:10:46;4.50;;;2.90;;
26271;SDS011;13997;48.902;12.472;2023-07-29T08:13:12;8.07;;;3.17;;
26271;SDS011;13997;48.902;12.472;2023-07-29T08:15:37;6.63;;;2.90;;
26271;SDS011;13997;48.902;12.472;2023-07-29T08:18:03;3.92;;;2.50;;
26271;SDS011;13997;48.902;12.472;2023-07-29T08:20:29;6.22;;;2.83;;
26271;SDS011;13997;48.902;12.472;2023-07-29T08:22:54;4.78;;;2.83;;
26271;SDS011;13997;48.902;12.472;2023-07-29T08:25:20;6.95;;;3.15;;
26271;SDS011;13997;48.902;12.472;2023-07-29T08:27:45;4.78;;;2.78;;
26271;SDS011;13997;48.902;12.472;2023-07-29T08:30:11;20.92;;;2.78;;
26271;SDS011;13997;48.902;12.472;2023-07-29T08:32:36;6.07;;;2.33;;
26271;SDS011;13997;48.902;12.472;2023-07-29T08:35:02;8.95;;;2.70;;
26271;SDS011;13997;48.902;12.472;2023-07-29T08:37:28;8.90;;;2.35;;
26271;SDS011;13997;48.902;12.472;2023-07-29T08:39:54;7.68;;;3.00;;
26271;SDS011;13997;48.902;12.472;2023-07-29T08:42:20;3.47;;;2.30;;
26271;SDS011;13997;48.902;12.472;2023-07-29T08:44:49;8.57;;;2.72;;
26271;SDS011;13997;48.902;12.472;2023-07-29T08:47:16;11.20;;;3.10;;
26271;SDS011;13997;48.902;12.472;2023-07-29T08:49:43;4.78;;;2.72;;
26271;SDS011;13997;48.902;12.472;2023-07-29T08:52:10;7.30;;;2.63;;
26271;SDS011;13997;48.902;12.472;2023-07-29T08:54:37;6.93;;;2.90;;
26271;SDS011;13997;48.902;12.472;2023-07-29T08:57:02;4.97;;;2.50;;
26271;SDS011;13997;48.902;12.472;2023-07-29T08:59:29;11.32;;;2.67;;
26271;SDS011;13997;48.902;12.472;2023-07-29T09:01:54;6.45;;;3.22;;
26271;SDS011;13997;48.902;12.472;2023-07-29T09:04:22;5.80;;;3.00;;
26271;SDS011;13997;48.902;12.472;2023-07-29T09:06:49;4.43;;;2.72;;
26271;SDS011;13997;48.902;12.472;2023-07-29T09:09:16;8.32;;;2.85;;
26271;SDS011;13997;48.902;12.472;2023-07-29T09:11:41;6.13;;;3.00;;
26271;SDS011;13997;48.902;12.472;2023-07-29T09:14:08;3.72;;;2.30;;
26271;SDS011;13997;48.902;12.472;2023-07-29T09:16:34;3.35;;;2.20;;
26271;SDS011;13997;48.902;12.472;2023-07-29T09:19:02;3.65;;;2.00;;
26271;SDS011;13997;48.902;12.472;2023-07-29T09:21:28;4.05;;;2.17;;
26271;SDS011;13997;48.902;12.472;2023-07-29T09:23:54;4.07;;;2.00;;
26271;SDS011;13997;48.902;12.472;2023-07-29T09:26:24;5.50;;;2.10;;
26271;SDS011;13997;48.902;12.472;2023-07-29T09:28:52;11.65;;;2.40;;
26271;SDS011;13997;48.902;12.472;2023-07-29T09:31:22;6.43;;;2.20;;
26271;SDS011;13997;48.902;12.472;2023-07-29T09:33:49;8.13;;;2.15;;
26271;SDS011;13997;48.902;12.472;2023-07-29T09:36:21;4.13;;;2.08;;
26271;SDS011;13997;48.902;12.472;2023-07-29T09:38:46;7.15;;;2.20;;
26271;SDS011;13997;48.902;12.472;2023-07-29T09:41:12;3.20;;;2.00;;
26271;SDS011;13997;48.902;12.472;2023-07-29T09:43:40;5.22;;;2.38;;
26271;SDS011;13997;48.902;12.472;2023-07-29T09:46:05;7.10;;;2.20;;
26271;SDS011;13997;48.902;12.472;2023-07-29T09:48:34;4.97;;;2.00;;
26271;SDS011;13997;48.902;12.472;2023-07-29T09:51:09;3.28;;;2.03;;
26271;SDS011;13997;48.902;12.472;2023-07-29T09:53:43;6.70;;;2.03;;
26271;SDS011;13997;48.902;12.472;2023-07-29T09:56:09;6.47;;;2.20;;
26271;SDS011;13997;48.902;12.472;2023-07-29T09:58:35;5.35;;;2.30;;
26271;SDS011;13997;48.902;12.472;2023-07-29T10:01:03;8.05;;;2.40;;
26271;SDS011;13997;48.902;12.472;2023-07-29T10:03:33;3.67;;;2.40;;
26271;SDS011;13997;48.902;12.472;2023-07-29T10:06:04;5.65;;;2.60;;
26271;SDS011;13997;48.902;12.472;2023-07-29T10:08:30;5.75;;;2.72;;
26271;SDS011;13997;48.902;12.472;2023-07-29T10:11:08;6.10;;;2.38;;
26271;SDS011;13997;48.902;12.472;2023-07-29T10:13:35;7.22;;;2.70;;
26271;SDS011;13997;48.902;12.472;2023-07-29T10:16:02;7.40;;;3.15;;
26271;SDS011;13997;48.902;12.472;2023-07-29T10:18:29;4.65;;;3.00;;
26271;SDS011;13997;48.902;12.472;2023-07-29T10:20:56;7.07;;;2.58;;
26271;SDS011;13997;48.902;12.472;2023-07-29T10:23:24;6.00;;;2.85;;
26271;SDS011;13997;48.902;12.472;2023-07-29T10:26:07;5.13;;;2.20;;
26271;SDS011;13997;48.902;12.472;2023-07-29T10:28:36;4.60;;;2.30;;
26271;SDS011;13997;48.902;12.472;2023-07-29T10:31:06;3.20;;;2.50;;
26271;SDS011;13997;48.902;12.472;2023-07-29T10:33:32;3.20;;;2.47;;
26271;SDS011;13997;48.902;12.472;2023-07-29T10:35:59;5.00;;;2.45;;
26271;SDS011;13997;48.902;12.472;2023-07-29T10:38:26;4.20;;;1.95;;
26271;SDS011;13997;48.902;12.472;2023-07-29T10:40:53;4.43;;;2.22;;
26271;SDS011;13997;48.902;12.472;2023-07-29T10:45:57;6.55;;;2.63;;
26271;SDS011;13997;48.902;12.472;2023-07-29T10:48:41;5.22;;;2.58;;
26271;SDS011;13997;48.902;12.472;2023-07-29T10:54:00;9.75;;;6.88;;
26271;SDS011;13997;48.902;12.472;2023-07-29T10:56:31;6.80;;;3.33;;
26271;SDS011;13997;48.902;12.472;2023-07-29T10:58:59;5.13;;;3.08;;
26271;SDS011;13997;48.902;12.472;2023-07-29T11:01:54;5.57;;;2.80;;
26271;SDS011;13997;48.902;12.472;2023-07-29T11:04:26;5.93;;;3.22;;
26271;SDS011;13997;48.902;12.472;2023-07-29T11:15:22;4.13;;;2.88;;
26271;SDS011;13997;48.902;12.472;2023-07-29T11:17:58;5.63;;;2.65;;
26271;SDS011;13997;48.902;12.472;2023-07-29T11:20:25;3.40;;;2.90;;
26271;SDS011;13997;48.902;12.472;2023-07-29T11:22:53;5.63;;;2.75;;
26271;SDS011;13997;48.902;12.472;2023-07-29T11:25:21;4.47;;;2.40;;
26271;SDS011;13997;48.902;12.472;2023-07-29T11:27:47;3.00;;;2.40;;
26271;SDS011;13997;48.902;12.472;2023-07-29T11:30:14;7.53;;;3.10;;
26271;SDS011;13997;48.902;12.472;2023-07-29T11:32:41;4.45;;;2.65;;
26271;SDS011;13997;48.902;12.472;2023-07-29T11:35:16;7.15;;;4.65;;
26271;SDS011;13997;48.902;12.472;2023-07-29T11:37:44;9.85;;;6.97;;
26271;SDS011;13997;48.902;12.472;2023-07-29T11:40:14;8.05;;;2.78;;
26271;SDS011;13997;48.902;12.472;2023-07-29T11:42:41;2.90;;;2.47;;
26271;SDS011;13997;48.902;12.472;2023-07-29T11:45:07;5.78;;;2.58;;
26271;SDS011;13997;48.902;12.472;2023-07-29T11:47:34;4.40;;;2.38;;
26271;SDS011;13997;48.902;12.472;2023-07-29T11:50:02;3.42;;;2.25;;
26271;SDS011;13997;48.902;12.472;2023-07-29T11:52:32;7.82;;;2.40;;
26271;SDS011;13997;48.902;12.472;2023-07-29T11:54:59;5.28;;;2.08;;
26271;SDS011;13997;48.902;12.472;2023-07-29T11:57:26;4.28;;;2.00;;
26271;SDS011;13997;48.902;12.472;2023-07-29T11:59:52;5.55;;;2.00;;
26271;SDS011;13997;48.902;12.472;2023-07-29T12:02:19;4.70;;;2.05;;
26271;SDS011;13997;48.902;12.472;2023-07-29T12:04:46;2.72;;;1.60;;
26271;SDS011;13997;48.902;12.472;2023-07-29T12:07:13;4.72;;;2.00;;
26271;SDS011;13997;48.902;12.472;2023-07-29T12:09:42;7.25;;;1.85;;
26271;SDS011;13997;48.902;12.472;2023-07-29T12:12:08;3.08;;;1.80;;
26271;SDS011;13997;48.902;12.472;2023-07-29T12:14:34;3.22;;;2.25;;
26271;SDS011;13997;48.902;12.472;2023-07-29T12:17:00;5.50;;;2.00;;
26271;SDS011;13997;48.902;12.472;2023-07-29T12:19:33;3.22;;;2.30;;
26271;SDS011;13997;48.902;12.472;2023-07-29T12:22:01;4.15;;;1.90;;
26271;SDS011;13997;48.902;12.472;2023-07-29T12:24:29;3.83;;;1.88;;
26271;SDS011;13997;48.902;12.472;2023-07-29T12:26:56;2.83;;;1.50;;
26271;SDS011;13997;48.902;12.472;2023-07-29T12:29:22;2.08;;;1.42;;
26271;SDS011;13997;48.902;12.472;2023-07-29T12:31:48;2.75;;;1.42;;
26271;SDS011;13997;48.902;12.472;2023-07-29T12:34:21;4.32;;;1.25;;
26271;SDS011;13997;48.902;12.472;2023-07-29T12:36:48;2.53;;;1.40;;
26271;SDS011;13997;48.902;12.472;2023-07-29T12:41:50;4.55;;;1.50;;
26271;SDS011;13997;48.902;12.472;2023-07-29T12:44:17;2.22;;;1.58;;
26271;SDS011;13997;48.902;12.472;2023-07-29T12:46:43;6.32;;;1.80;;
26271;SDS011;13997;48.902;12.472;2023-07-29T12:49:09;2.30;;;1.77;;
26271;SDS011;13997;48.902;12.472;2023-07-29T12:51:35;4.32;;;2.17;;
26271;SDS011;13997;48.902;12.472;2023-07-29T12:54:02;8.15;;;1.98;;
26271;SDS011;13997;48.902;12.472;2023-07-29T12:56:29;3.97;;;1.80;;
26271;SDS011;13997;48.902;12.472;2023-07-29T12:58:56;2.47;;;1.83;;
26271;SDS011;13997;48.902;12.472;2023-07-29T13:01:22;2.60;;;1.55;;
26271;SDS011;13997;48.902;12.472;2023-07-29T13:03:48;2.83;;;1.67;;
26271;SDS011;13997;48.902;12.472;2023-07-29T13:06:14;2.17;;;1.50;;
26271;SDS011;13997;48.902;12.472;2023-07-29T13:08:40;2.58;;;1.70;;
26271;SDS011;13997;48.902;12.472;2023-07-29T13:11:06;6.35;;;1.77;;
26271;SDS011;13997;48.902;12.472;2023-07-29T13:13:32;3.08;;;1.70;;
26271;SDS011;13997;48.902;12.472;2023-07-29T13:15:58;2.22;;;1.80;;
26271;SDS011;13997;48.902;12.472;2023-07-29T13:18:24;3.15;;;1.58;;
26271;SDS011;13997;48.902;12.472;2023-07-29T13:20:49;2.80;;;1.80;;
26271;SDS011;13997;48.902;12.472;2023-07-29T13:23:15;3.90;;;1.60;;
26271;SDS011;13997;48.902;12.472;2023-07-29T13:25:41;2.83;;;1.50;;
26271;SDS011;13997;48.902;12.472;2023-07-29T13:28:07;6.38;;;1.52;;
26271;SDS011;13997;48.902;12.472;2023-07-29T13:30:34;3.83;;;1.77;;
26271;SDS011;13997;48.902;12.472;2023-07-29T13:33:00;2.72;;;1.60;;
26271;SDS011;13997;48.902;12.472;2023-07-29T13:35:26;5.43;;;1.80;;
26271;SDS011;13997;48.902;12.472;2023-07-29T13:37:52;3.53;;;1.40;;
26271;SDS011;13997;48.902;12.472;2023-07-29T13:40:17;3.90;;;1.35;;
26271;SDS011;13997;48.902;12.472;2023-07-29T13:42:43;4.60;;;1.55;;
26271;SDS011;13997;48.902;12.472;2023-07-29T13:45:08;3.17;;;1.30;;
26271;SDS011;13997;48.902;12.472;2023-07-29T13:47:34;2.75;;;1.65;;
26271;SDS011;13997;48.902;12.472;2023-07-29T13:50:00;3.33;;;1.50;;
26271;SDS011;13997;48.902;12.472;2023-07-29T13:52:26;2.72;;;1.63;;
26271;SDS011;13997;48.902;12.472;2023-07-29T13:54:51;2.22;;;1.40;;
26271;SDS011;13997;48.902;12.472;2023-07-29T13:57:17;2.28;;;1.50;;
26271;SDS011;13997;48.902;12.472;2023-07-29T13:59:42;3.38;;;1.30;;
26271;SDS011;13997;48.902;12.472;2023-07-29T14:02:08;2.80;;;1.80;;
26271;SDS011;13997;48.902;12.472;2023-07-29T14:04:33;2.97;;;1.50;;
26271;SDS011;13997;48.902;12.472;2023-07-29T14:06:59;2.42;;;1.33;;
26271;SDS011;13997;48.902;12.472;2023-07-29T14:09:25;2.50;;;1.38;;
26271;SDS011;13997;48.902;12.472;2023-07-29T14:11:51;1.63;;;1.23;;
26271;SDS011;13997;48.902;12.472;2023-07-29T14:14:18;2.00;;;1.50;;
26271;SDS011;13997;48.902;12.472;2023-07-29T14:16:44;2.88;;;1.40;;
26271;SDS011;13997;48.902;12.472;2023-07-29T14:19:10;1.80;;;1.50;;
26271;SDS011;13997;48.902;12.472;2023-07-29T14:21:35;3.35;;;1.35;;
26271;SDS011;13997;48.902;12.472;2023-07-29T14:24:01;2.25;;;1.50;;
26271;SDS011;13997;48.902;12.472;2023-07-29T14:26:26;4.30;;;1.35;;
26271;SDS011;13997;48.902;12.472;2023-07-29T14:28:52;4.28;;;1.40;;
26271;SDS011;13997;48.902;12.472;2023-07-29T14:31:17;3.35;;;1.50;;
26271;SDS011;13997;48.902;12.472;2023-07-29T14:33:43;2.05;;;1.40;;
26271;SDS011;13997;48.902;12.472;2023-07-29T14:36:09;5.80;;;1.77;;
26271;SDS011;13997;48.902;12.472;2023-07-29T14:38:35;3.97;;;1.50;;
26271;SDS011;13997;48.902;12.472;2023-07-29T14:41:01;2.80;;;1.55;;
26271;SDS011;13997;48.902;12.472;2023-07-29T14:43:27;4.40;;;1.42;;
26271;SDS011;13997;48.902;12.472;2023-07-29T14:45:53;2.90;;;1.33;;
26271;SDS011;13997;48.902;12.472;2023-07-29T14:48:19;2.38;;;1.42;;
26271;SDS011;13997;48.902;12.472;2023-07-29T14:50:44;3.25;;;1.52;;
26271;SDS011;13997;48.902;12.472;2023-07-29T14:53:10;2.60;;;1.40;;
26271;SDS011;13997;48.902;12.472;2023-07-29T14:55:36;2.45;;;1.50;;